Time;durP1;ratioP1;P1;durP2;ratioP2;P2;SDS_P1;SDS_P2;PMS_P1;PMS_P2;Temp;Humidity;BMP_temperature;BMP_pressure;BME280_temperature;BME280_humidity;BME280_pressure;Samples;Min_cycle;Max_cycle;Signal;HPM_P1;HPM_P2
2022/08/05 00:01:20;;;;;;;7.00;3.75;;;;;;;;;;5112180;27;20460;-61
2022/08/05 00:03:47;;;;;;;7.05;3.70;;;;;;;;;;5109617;28;20031;-61
2022/08/05 00:06:13;;;;;;;7.07;3.60;;;;;;;;;;5111675;28;20028;-62
2022/08/05 00:10:33;;;;;;;9.10;4.07;;;;;;;;;;5111033;27;20416;-61
2022/08/05 00:12:59;;;;;;;13.50;6.00;;;;;;;;;;5110119;28;20038;-62
2022/08/05 00:17:14;;;;;;;10.68;5.15;;;;;;;;;;5110996;27;20469;-61
2022/08/05 00:19:40;;;;;;;13.15;5.00;;;;;;;;;;5110169;28;20024;-62
2022/08/05 00:22:06;;;;;;;11.90;5.85;;;;;;;;;;5110061;28;20027;-62
2022/08/05 00:25:11;;;;;;;11.80;5.85;;;;;;;;;;5111328;27;20417;-62
2022/08/05 00:27:37;;;;;;;12.15;5.80;;;;;;;;;;5111394;28;20472;-62
2022/08/05 00:30:04;;;;;;;10.57;5.30;;;;;;;;;;5111534;28;20042;-61
2022/08/05 00:35:13;;;;;;;10.57;5.03;;;;;;;;;;5112116;27;20430;-61
2022/08/05 00:37:39;;;;;;;11.35;4.75;;;;;;;;;;5111287;28;20042;-61
2022/08/05 00:40:05;;;;;;;10.20;5.15;;;;;;;;;;5110884;28;20027;-61
2022/08/05 00:42:31;;;;;;;8.68;4.97;;;;;;;;;;5111245;28;20084;-62
2022/08/05 00:44:57;;;;;;;12.95;5.63;;;;;;;;;;5110121;28;20027;-62
2022/08/05 00:47:23;;;;;;;13.77;5.40;;;;;;;;;;5109493;28;20376;-62
2022/08/05 00:50:01;;;;;;;9.93;4.90;;;;;;;;;;5070831;28;20442;-62
2022/08/05 00:52:27;;;;;;;9.15;4.22;;;;;;;;;;5069113;28;20340;-62
2022/08/05 00:55:10;;;;;;;8.13;4.45;;;;;;;;;;5111682;27;20409;-61
2022/08/05 00:59:12;;;;;;;7.57;4.22;;;;;;;;;;5111652;27;20481;-62
2022/08/05 01:01:39;;;;;;;10.63;3.85;;;;;;;;;;5111349;28;20031;-61
2022/08/05 01:04:05;;;;;;;5.97;3.00;;;;;;;;;;5111372;28;20476;-61
2022/08/05 01:06:31;;;;;;;6.68;3.33;;;;;;;;;;5110854;28;20043;-61
2022/08/05 01:10:44;;;;;;;6.50;3.97;;;;;;;;;;5111512;27;20424;-62
2022/08/05 01:17:02;;;;;;;6.78;3.90;;;;;;;;;;5111486;27;20424;-61
2022/08/05 01:20:46;;;;;;;7.05;4.07;;;;;;;;;;5111646;27;20416;-61
2022/08/05 01:23:20;;;;;;;7.57;3.53;;;;;;;;;;5110051;28;20028;-62
2022/08/05 01:25:55;;;;;;;8.98;4.13;;;;;;;;;;5111356;28;20019;-62
2022/08/05 01:28:49;;;;;;;7.82;3.30;;;;;;;;;;5111236;27;20411;-61
2022/08/05 01:31:21;;;;;;;7.00;3.75;;;;;;;;;;5127145;28;20034;-61
2022/08/05 01:33:53;;;;;;;5.45;3.50;;;;;;;;;;5127140;28;20438;-62
2022/08/05 01:38:09;;;;;;;7.88;3.70;;;;;;;;;;5111389;27;20428;-62
2022/08/05 01:41:45;;;;;;;7.22;3.67;;;;;;;;;;5111652;27;20389;-61
2022/08/05 01:50:31;;;;;;;5.88;3.25;;;;;;;;;;5111019;27;20423;-62
2022/08/05 01:52:59;;;;;;;4.63;2.72;;;;;;;;;;5110058;28;20126;-62
2022/08/05 01:55:27;;;;;;;5.03;3.22;;;;;;;;;;5110971;28;20024;-62
2022/08/05 01:58:43;;;;;;;4.10;2.40;;;;;;;;;;5111481;27;20324;-62
2022/08/05 02:01:10;;;;;;;4.13;2.85;;;;;;;;;;5110064;28;20024;-62
2022/08/05 02:03:37;;;;;;;5.03;2.78;;;;;;;;;;5111031;28;20376;-62
2022/08/05 02:06:04;;;;;;;5.18;2.90;;;;;;;;;;5111223;28;20041;-62
2022/08/05 02:08:32;;;;;;;5.18;2.88;;;;;;;;;;5111175;28;20028;-62
2022/08/05 02:11:08;;;;;;;5.05;3.00;;;;;;;;;;5109453;28;20487;-62
2022/08/05 02:13:38;;;;;;;6.25;3.35;;;;;;;;;;5111200;28;20027;-62
2022/08/05 02:16:11;;;;;;;7.57;2.88;;;;;;;;;;5110045;28;20430;-62
2022/08/05 02:18:44;;;;;;;15.80;3.85;;;;;;;;;;5110693;28;20039;-62
2022/08/05 02:21:15;;;;;;;7.03;3.15;;;;;;;;;;5109657;28;20379;-62
2022/08/05 02:23:43;;;;;;;4.80;3.00;;;;;;;;;;5110559;28;20416;-62
2022/08/05 02:26:10;;;;;;;5.22;2.63;;;;;;;;;;5109531;28;20016;-62
2022/08/05 02:29:20;;;;;;;4.13;2.30;;;;;;;;;;5111332;27;20420;-62
2022/08/05 02:31:48;;;;;;;4.55;2.47;;;;;;;;;;5110897;28;20476;-62
2022/08/05 02:34:15;;;;;;;6.05;3.08;;;;;;;;;;5110014;28;20144;-62
2022/08/05 02:38:18;;;;;;;4.03;2.50;;;;;;;;;;5110966;27;20485;-61
2022/08/05 02:40:45;;;;;;;4.43;2.88;;;;;;;;;;5111347;28;20494;-62
2022/08/05 02:43:32;;;;;;;6.35;2.92;;;;;;;;;;5111707;27;20418;-61
2022/08/05 02:45:58;;;;;;;8.23;3.67;;;;;;;;;;5109646;28;20024;-61
2022/08/05 02:48:25;;;;;;;6.10;3.45;;;;;;;;;;5111483;28;20043;-61
2022/08/05 02:53:29;;;;;;;6.60;3.58;;;;;;;;;;5110929;27;20320;-62
2022/08/05 02:58:41;;;;;;;7.55;4.25;;;;;;;;;;5111596;27;20469;-62
2022/08/05 03:01:09;;;;;;;7.55;4.25;;;;;;;;;;5110277;28;20023;-62
2022/08/05 03:03:38;;;;;;;7.07;3.70;;;;;;;;;;5111746;28;20102;-62
2022/08/05 03:06:04;;;;;;;7.32;3.47;;;;;;;;;;5109639;28;20023;-63
2022/08/05 03:08:30;;;;;;;5.60;3.03;;;;;;;;;;5111187;28;20043;-62
2022/08/05 03:10:56;;;;;;;4.95;2.80;;;;;;;;;;5111132;28;20020;-62
2022/08/05 03:13:39;;;;;;;5.00;2.47;;;;;;;;;;5111276;27;20442;-61
2022/08/05 03:16:05;;;;;;;5.13;2.60;;;;;;;;;;5111317;28;20027;-61
2022/08/05 03:19:47;;;;;;;6.05;3.22;;;;;;;;;;5111428;27;20392;-61
2022/08/05 03:22:13;;;;;;;5.68;3.00;;;;;;;;;;5111307;28;20024;-62
2022/08/05 03:24:40;;;;;;;6.38;3.35;;;;;;;;;;5111252;28;20027;-61
2022/08/05 03:27:06;;;;;;;6.57;3.10;;;;;;;;;;5110899;28;20099;-62
2022/08/05 03:32:14;;;;;;;5.82;3.20;;;;;;;;;;5111402;27;20989;-61
2022/08/05 03:34:40;;;;;;;6.88;3.65;;;;;;;;;;5111054;28;20032;-62
2022/08/05 03:37:06;;;;;;;6.80;3.60;;;;;;;;;;5111566;28;20023;-61
2022/08/05 03:39:33;;;;;;;8.50;3.83;;;;;;;;;;5111210;28;20364;-61
2022/08/05 03:41:59;;;;;;;7.13;3.72;;;;;;;;;;5110870;28;20405;-63
2022/08/05 03:46:25;;;;;;;7.13;3.15;;;;;;;;;;5111715;27;20412;-63
2022/08/05 03:53:44;;;;;;;9.15;4.60;;;;;;;;;;5111860;27;20424;-61
2022/08/05 03:56:12;;;;;;;7.75;4.43;;;;;;;;;;5110975;28;20420;-61
2022/08/05 03:58:41;;;;;;;8.55;4.35;;;;;;;;;;5109974;28;20395;-61
2022/08/05 04:01:08;;;;;;;9.82;4.85;;;;;;;;;;5111278;28;20081;-62
2022/08/05 04:03:36;;;;;;;8.18;4.40;;;;;;;;;;5110759;28;20028;-62
2022/08/05 04:08:37;;;;;;;7.32;3.65;;;;;;;;;;5111415;27;20416;-62
2022/08/05 04:12:18;;;;;;;14.57;8.15;;;;;;;;;;5112033;27;20426;-62
2022/08/05 04:14:45;;;;;;;19.40;9.85;;;;;;;;;;5127087;28;20039;-62
2022/08/05 04:17:12;;;;;;;17.73;9.43;;;;;;;;;;5126745;28;20047;-62
2022/08/05 04:21:00;;;;;;;18.63;8.43;;;;;;;;;;5112117;27;20428;-62
2022/08/05 04:23:27;;;;;;;13.98;7.22;;;;;;;;;;5110871;28;20028;-62
2022/08/05 04:25:53;;;;;;;13.48;6.88;;;;;;;;;;5109916;28;20483;-62
2022/08/05 04:32:00;;;;;;;18.23;7.30;;;;;;;;;;5070483;28;20415;-61
2022/08/05 04:34:42;;;;;;;14.10;6.25;;;;;;;;;;5111609;27;20412;-61
2022/08/05 04:37:08;;;;;;;13.35;6.82;;;;;;;;;;5126954;28;20468;-62
2022/08/05 04:39:34;;;;;;;15.75;7.43;;;;;;;;;;5111220;28;20020;-62
2022/08/05 04:44:13;;;;;;;12.95;7.18;;;;;;;;;;5110993;27;20416;-61
2022/08/05 04:46:39;;;;;;;12.65;6.57;;;;;;;;;;5111288;28;20027;-62
2022/08/05 04:50:52;;;;;;;11.52;6.22;;;;;;;;;;5112118;27;20420;-62
2022/08/05 04:53:19;;;;;;;11.32;6.20;;;;;;;;;;5110796;28;20047;-62
2022/08/05 04:55:45;;;;;;;11.57;5.60;;;;;;;;;;5111330;28;20028;-62
2022/08/05 04:58:51;;;;;;;11.32;5.43;;;;;;;;;;5070613;28;20407;-63
2022/08/05 05:05:06;;;;;;;15.00;4.72;;;;;;;;;;5111504;27;20485;-62
2022/08/05 05:09:34;;;;;;;9.07;3.83;;;;;;;;;;5071487;28;20424;-62
2022/08/05 05:13:05;;;;;;;8.48;4.03;;;;;;;;;;5070783;28;20427;-62
2022/08/05 05:15:32;;;;;;;7.32;4.55;;;;;;;;;;5070772;28;20024;-62
2022/08/05 05:19:56;;;;;;;8.25;3.90;;;;;;;;;;5111199;27;20428;-62
2022/08/05 05:22:22;;;;;;;10.93;4.55;;;;;;;;;;5111306;28;20020;-61
2022/08/05 05:24:48;;;;;;;6.80;3.67;;;;;;;;;;5127084;28;20024;-62
2022/08/05 05:27:14;;;;;;;9.25;4.57;;;;;;;;;;5110898;28;20476;-62
2022/08/05 05:29:40;;;;;;;7.80;4.35;;;;;;;;;;5111198;28;20027;-62
2022/08/05 05:32:06;;;;;;;7.63;3.83;;;;;;;;;;5126952;28;20537;-62
2022/08/05 05:36:18;;;;;;;8.85;4.53;;;;;;;;;;5153035;27;20803;-61
2022/08/05 05:38:44;;;;;;;8.35;4.22;;;;;;;;;;5131886;28;20035;-62
2022/08/05 05:41:10;;;;;;;8.40;3.70;;;;;;;;;;5112983;28;20027;-62
2022/08/05 05:43:36;;;;;;;6.10;3.72;;;;;;;;;;5131814;28;20019;-62
2022/08/05 05:46:02;;;;;;;6.72;3.50;;;;;;;;;;5131645;28;20023;-62
2022/08/05 05:48:43;;;;;;;6.93;3.97;;;;;;;;;;5111420;27;20406;-61
2022/08/05 05:51:29;;;;;;;9.63;4.10;;;;;;;;;;5031730;28;20415;-61
2022/08/05 05:56:28;;;;;;;7.22;3.75;;;;;;;;;;5111102;27;20420;-61
2022/08/05 05:58:54;;;;;;;7.43;3.80;;;;;;;;;;5111327;28;20427;-62
2022/08/05 06:01:20;;;;;;;9.27;3.50;;;;;;;;;;5109955;28;20391;-61
2022/08/05 06:03:46;;;;;;;5.60;3.58;;;;;;;;;;5110784;28;20020;-61
2022/08/05 06:06:12;;;;;;;8.30;3.58;;;;;;;;;;5111179;28;20028;-62
2022/08/05 06:08:38;;;;;;;5.22;3.08;;;;;;;;;;5110796;28;20028;-62
2022/08/05 06:11:05;;;;;;;6.50;3.67;;;;;;;;;;5111060;28;20016;-62
2022/08/05 06:13:31;;;;;;;6.45;3.65;;;;;;;;;;5111166;28;20032;-62
2022/08/05 06:15:58;;;;;;;11.57;4.15;;;;;;;;;;5110389;28;20031;-62
2022/08/05 06:18:24;;;;;;;4.65;2.90;;;;;;;;;;5109635;28;20484;-61
2022/08/05 06:20:50;;;;;;;5.95;3.35;;;;;;;;;;5109569;28;20028;-62
2022/08/05 06:23:16;;;;;;;5.60;3.13;;;;;;;;;;5110398;28;20027;-62
2022/08/05 06:25:42;;;;;;;7.15;3.53;;;;;;;;;;5110735;28;20032;-62
2022/08/05 06:28:08;;;;;;;5.65;3.53;;;;;;;;;;5110678;28;20069;-62
2022/08/05 06:34:32;;;;;;;4.78;2.80;;;;;;;;;;5111533;27;20314;-61
2022/08/05 06:39:42;;;;;;;5.95;3.25;;;;;;;;;;5112103;27;20411;-61
2022/08/05 06:42:08;;;;;;;6.20;3.58;;;;;;;;;;5111272;28;20097;-61
2022/08/05 06:44:34;;;;;;;6.25;3.85;;;;;;;;;;5110809;28;20434;-61
2022/08/05 06:47:00;;;;;;;6.53;3.55;;;;;;;;;;5111175;28;20476;-61
2022/08/05 06:49:27;;;;;;;7.65;3.42;;;;;;;;;;5126888;28;20065;-61
2022/08/05 06:51:53;;;;;;;8.73;3.83;;;;;;;;;;5126430;28;20024;-61
2022/08/05 06:54:19;;;;;;;6.45;2.90;;;;;;;;;;5126837;28;20016;-62
2022/08/05 06:57:39;;;;;;;6.25;2.83;;;;;;;;;;5112059;27;20423;-64
2022/08/05 07:00:05;;;;;;;5.05;2.67;;;;;;;;;;5110866;28;20020;-62
2022/08/05 07:04:00;;;;;;;5.40;2.50;;;;;;;;;;5111691;27;20477;-61
2022/08/05 07:06:26;;;;;;;4.22;2.65;;;;;;;;;;5109537;28;20553;-61
2022/08/05 07:08:53;;;;;;;4.30;2.33;;;;;;;;;;5109965;28;20414;-61
2022/08/05 07:11:19;;;;;;;5.25;2.30;;;;;;;;;;5111283;28;20019;-62
2022/08/05 07:16:48;;;;;;;6.93;2.97;;;;;;;;;;5111595;28;20027;-62
2022/08/05 07:19:15;;;;;;;4.40;2.60;;;;;;;;;;5109339;28;20088;-62
2022/08/05 07:21:42;;;;;;;3.65;2.40;;;;;;;;;;5111220;28;20016;-62
2022/08/05 07:25:09;;;;;;;3.83;2.53;;;;;;;;;;5071404;28;20911;-62
2022/08/05 07:27:35;;;;;;;4.25;2.50;;;;;;;;;;5070358;28;20047;-62
2022/08/05 07:31:26;;;;;;;4.15;2.78;;;;;;;;;;5173651;27;20322;-61
2022/08/05 07:33:52;;;;;;;5.13;2.63;;;;;;;;;;5148197;27;20039;-62
2022/08/05 07:36:18;;;;;;;4.55;2.97;;;;;;;;;;5151858;27;20068;-62
2022/08/05 07:38:44;;;;;;;6.10;3.17;;;;;;;;;;5152352;27;20023;-63
2022/08/05 07:41:12;;;;;;;6.63;2.65;;;;;;;;;;5151739;27;20023;-63
2022/08/05 07:43:38;;;;;;;4.63;2.63;;;;;;;;;;5152146;27;20027;-63
2022/08/05 07:47:54;;;;;;;7.43;3.20;;;;;;;;;;5110483;27;20775;-62
2022/08/05 07:50:20;;;;;;;4.90;2.70;;;;;;;;;;5111108;28;20066;-63
2022/08/05 07:52:46;;;;;;;4.85;2.78;;;;;;;;;;5111159;28;20031;-62
2022/08/05 07:55:59;;;;;;;6.10;2.47;;;;;;;;;;5110894;27;20818;-63
2022/08/05 07:58:25;;;;;;;3.85;2.42;;;;;;;;;;5109893;28;20024;-63
2022/08/05 08:00:51;;;;;;;4.18;2.47;;;;;;;;;;5111394;28;20440;-62
2022/08/05 08:03:18;;;;;;;4.50;2.38;;;;;;;;;;5110706;28;20027;-63
2022/08/05 08:05:44;;;;;;;4.05;2.63;;;;;;;;;;5111133;28;20024;-62
2022/08/05 08:08:10;;;;;;;3.83;2.50;;;;;;;;;;5110854;28;20030;-63
2022/08/05 08:10:37;;;;;;;4.15;2.47;;;;;;;;;;5109818;28;20059;-63
2022/08/05 08:13:03;;;;;;;3.42;2.08;;;;;;;;;;5111128;28;20096;-63
2022/08/05 08:17:42;;;;;;;4.18;2.65;;;;;;;;;;5111535;27;20412;-62
2022/08/05 08:20:09;;;;;;;3.80;2.40;;;;;;;;;;5111374;28;20552;-62
2022/08/05 08:22:35;;;;;;;2.88;1.75;;;;;;;;;;5109547;28;20024;-62
2022/08/05 08:25:01;;;;;;;3.55;2.38;;;;;;;;;;5111215;28;20469;-63
2022/08/05 08:27:27;;;;;;;7.28;2.58;;;;;;;;;;5111083;28;20468;-63
2022/08/05 08:29:53;;;;;;;3.88;2.28;;;;;;;;;;5110945;28;20032;-62
2022/08/05 08:32:19;;;;;;;3.17;2.10;;;;;;;;;;5111093;28;20379;-63
2022/08/05 08:34:45;;;;;;;4.45;2.78;;;;;;;;;;5110973;28;20015;-62
2022/08/05 08:37:11;;;;;;;4.65;2.70;;;;;;;;;;5110512;28;20032;-63
2022/08/05 08:39:38;;;;;;;3.03;2.10;;;;;;;;;;5108267;28;20091;-63
2022/08/05 08:42:04;;;;;;;6.88;2.95;;;;;;;;;;5108690;28;20058;-62
2022/08/05 08:44:31;;;;;;;3.72;2.30;;;;;;;;;;5110128;28;20114;-62
2022/08/05 08:46:58;;;;;;;5.32;2.80;;;;;;;;;;5110728;28;20084;-62
2022/08/05 08:49:24;;;;;;;3.72;2.35;;;;;;;;;;5110497;28;20437;-62
2022/08/05 08:52:07;;;;;;;3.30;2.10;;;;;;;;;;5110363;28;20103;-62
2022/08/05 08:54:34;;;;;;;3.03;1.98;;;;;;;;;;5109281;28;20106;-62
2022/08/05 08:57:01;;;;;;;4.28;2.20;;;;;;;;;;5109189;28;20073;-62
2022/08/05 08:59:27;;;;;;;6.63;2.67;;;;;;;;;;5110137;28;20097;-62
2022/08/05 09:01:53;;;;;;;3.58;2.45;;;;;;;;;;5110363;28;20028;-62
2022/08/05 09:04:20;;;;;;;3.38;2.17;;;;;;;;;;5109042;28;20033;-62
2022/08/05 09:06:46;;;;;;;4.03;2.10;;;;;;;;;;5109631;28;20111;-62
2022/08/05 09:09:19;;;;;;;3.53;2.10;;;;;;;;;;5110061;28;20016;-62
2022/08/05 09:11:45;;;;;;;;;;;;;;;;;;5109908;28;20032;-62
2022/08/05 09:14:11;;;;;;;2.95;2.13;;;;;;;;;;5110041;28;19904;-62
2022/08/05 09:16:38;;;;;;;4.53;2.42;;;;;;;;;;5106555;28;20052;-64
2022/08/05 09:19:04;;;;;;;3.55;2.35;;;;;;;;;;5109750;28;20028;-63
2022/08/05 09:21:30;;;;;;;3.65;2.38;;;;;;;;;;5108825;28;20032;-64
2022/08/05 09:24:04;;;;;;;10.23;2.95;;;;;;;;;;5110053;28;20055;-63
2022/08/05 09:26:30;;;;;;;4.93;2.67;;;;;;;;;;5109609;28;20024;-65
2022/08/05 09:29:00;;;;;;;3.58;2.30;;;;;;;;;;5095679;28;20440;-63
2022/08/05 09:31:26;;;;;;;3.33;2.35;;;;;;;;;;5096642;28;20024;-63
2022/08/05 09:34:00;;;;;;;4.28;2.63;;;;;;;;;;5094628;28;20020;-63
2022/08/05 09:36:40;;;;;;;5.85;2.35;;;;;;;;;;5094852;28;20515;-62
2022/08/05 09:39:08;;;;;;;2.97;2.40;;;;;;;;;;5091018;28;20077;-63
2022/08/05 09:41:34;;;;;;;3.65;2.60;;;;;;;;;;5095707;28;20031;-64
2022/08/05 09:44:00;;;;;;;4.07;2.50;;;;;;;;;;5094750;28;20016;-63
2022/08/05 09:46:32;;;;;;;8.50;2.55;;;;;;;;;;5096058;28;20121;-64
2022/08/05 09:49:03;;;;;;;4.30;2.47;;;;;;;;;;5095773;28;20024;-62
2022/08/05 09:51:33;;;;;;;7.93;2.42;;;;;;;;;;5094682;28;20122;-62
2022/08/05 09:54:00;;;;;;;3.90;2.58;;;;;;;;;;5095486;28;20020;-62
2022/08/05 09:56:27;;;;;;;3.17;2.00;;;;;;;;;;5095804;28;20080;-61
2022/08/05 09:58:57;;;;;;;2.88;2.20;;;;;;;;;;5094584;28;20024;-63
2022/08/05 10:01:23;;;;;;;3.63;2.35;;;;;;;;;;5095167;28;20023;-62
2022/08/05 10:04:06;;;;;;;3.88;2.78;;;;;;;;;;5095843;28;20106;-63
2022/08/05 10:06:32;;;;;;;3.25;2.25;;;;;;;;;;5095667;28;20020;-62
2022/08/05 10:09:22;;;;;;;3.88;2.50;;;;;;;;;;5095239;28;20028;-63
2022/08/05 10:11:49;;;;;;;3.92;2.38;;;;;;;;;;5094334;28;20042;-63
2022/08/05 10:14:23;;;;;;;5.25;2.40;;;;;;;;;;5095507;28;20048;-63
2022/08/05 10:16:49;;;;;;;2.50;2.10;;;;;;;;;;5093537;28;20058;-62
2022/08/05 10:19:16;;;;;;;3.30;2.25;;;;;;;;;;5095485;28;20468;-62
2022/08/05 10:21:42;;;;;;;3.83;2.78;;;;;;;;;;5094051;28;20038;-63
2022/08/05 10:24:11;;;;;;;3.65;2.33;;;;;;;;;;5095191;28;20097;-63
2022/08/05 10:26:39;;;;;;;4.78;2.90;;;;;;;;;;5094128;28;20434;-62
2022/08/05 10:29:07;;;;;;;3.85;2.60;;;;;;;;;;5093553;28;20380;-63
2022/08/05 10:31:33;;;;;;;6.60;2.15;;;;;;;;;;5095166;28;20446;-63
2022/08/05 10:33:59;;;;;;;3.38;2.25;;;;;;;;;;5095161;28;20125;-63
2022/08/05 10:36:26;;;;;;;3.20;2.13;;;;;;;;;;5094599;28;20146;-63
2022/08/05 10:38:55;;;;;;;4.28;2.50;;;;;;;;;;5094297;28;20032;-64
2022/08/05 10:41:41;;;;;;;3.75;2.45;;;;;;;;;;5095065;28;20020;-63
2022/08/05 10:44:11;;;;;;;3.55;2.17;;;;;;;;;;5063503;28;20069;-63
2022/08/05 10:46:43;;;;;;;2.92;2.10;;;;;;;;;;5095267;28;20027;-63
2022/08/05 10:49:10;;;;;;;3.30;2.35;;;;;;;;;;5094922;28;20020;-64
2022/08/05 10:51:46;;;;;;;5.10;2.38;;;;;;;;;;5094336;28;20024;-63
2022/08/05 10:54:13;;;;;;;3.45;2.30;;;;;;;;;;5094872;28;20028;-63
2022/08/05 10:56:54;;;;;;;3.50;2.20;;;;;;;;;;5093341;28;20036;-63
2022/08/05 10:59:31;;;;;;;3.35;2.30;;;;;;;;;;5094947;28;20098;-65
2022/08/05 11:02:09;;;;;;;3.30;2.00;;;;;;;;;;5094654;28;20035;-64
2022/08/05 11:05:02;;;;;;;3.42;2.28;;;;;;;;;;5094184;28;20017;-64
2022/08/05 11:07:30;;;;;;;2.33;1.85;;;;;;;;;;5107121;28;20040;-64
2022/08/05 11:09:56;;;;;;;2.75;2.00;;;;;;;;;;5094633;28;20384;-64
2022/08/05 11:12:25;;;;;;;5.53;3.38;;;;;;;;;;5094139;28;20053;-64
2022/08/05 11:15:07;;;;;;;4.63;2.10;;;;;;;;;;5094454;28;20028;-62
2022/08/05 11:17:37;;;;;;;2.78;1.73;;;;;;;;;;5092786;28;20404;-63
2022/08/05 11:20:08;;;;;;;3.85;1.80;;;;;;;;;;5093854;28;20095;-63
2022/08/05 11:22:43;;;;;;;4.70;2.60;;;;;;;;;;5095122;28;20375;-63
2022/08/05 11:25:30;;;;;;;3.38;2.08;;;;;;;;;;5094222;28;20016;-63
2022/08/05 11:28:16;;;;;;;4.70;2.08;;;;;;;;;;5094791;28;20424;-64
2022/08/05 11:31:00;;;;;;;2.97;2.13;;;;;;;;;;5094048;28;20028;-64
2022/08/05 11:33:34;;;;;;;3.60;2.00;;;;;;;;;;5093705;28;20042;-64
2022/08/05 11:36:00;;;;;;;4.57;1.85;;;;;;;;;;5094006;28;20016;-64
2022/08/05 11:38:38;;;;;;;3.30;2.03;;;;;;;;;;5093950;28;20057;-64
2022/08/05 11:41:04;;;;;;;2.58;1.75;;;;;;;;;;5093580;28;20039;-64
2022/08/05 11:43:31;;;;;;;2.38;1.70;;;;;;;;;;5092636;28;20028;-64
2022/08/05 11:45:58;;;;;;;2.97;2.00;;;;;;;;;;5092599;28;20020;-64
2022/08/05 11:48:24;;;;;;;3.40;1.92;;;;;;;;;;5093420;28;20028;-64
2022/08/05 11:50:51;;;;;;;2.50;1.83;;;;;;;;;;5093558;28;20024;-64
2022/08/05 11:53:18;;;;;;;4.63;1.90;;;;;;;;;;5093971;28;20415;-64
2022/08/05 11:55:54;;;;;;;2.60;1.90;;;;;;;;;;5093234;28;20023;-63
2022/08/05 11:58:30;;;;;;;5.90;2.38;;;;;;;;;;5092750;28;20032;-63
2022/08/05 12:01:02;;;;;;;4.30;2.05;;;;;;;;;;5093192;28;20031;-63
2022/08/05 12:03:28;;;;;;;2.42;1.73;;;;;;;;;;5093749;28;20043;-63
2022/08/05 12:05:57;;;;;;;3.10;2.28;;;;;;;;;;5093590;28;20039;-63
2022/08/05 12:08:24;;;;;;;3.75;2.25;;;;;;;;;;5093171;28;20024;-63
2022/08/05 12:10:50;;;;;;;5.22;2.50;;;;;;;;;;5092319;28;20480;-63
2022/08/05 12:13:17;;;;;;;2.25;1.85;;;;;;;;;;5093804;28;20052;-66
2022/08/05 12:15:44;;;;;;;3.55;1.90;;;;;;;;;;5092810;28;20051;-63
2022/08/05 12:18:10;;;;;;;4.40;2.22;;;;;;;;;;5093416;28;20108;-63
2022/08/05 12:20:37;;;;;;;2.58;2.00;;;;;;;;;;5092183;28;20031;-64
2022/08/05 12:23:12;;;;;;;3.63;2.20;;;;;;;;;;5093091;28;20016;-64
2022/08/05 12:25:52;;;;;;;1.75;1.48;;;;;;;;;;5092092;28;20020;-64
2022/08/05 12:28:37;;;;;;;2.88;2.17;;;;;;;;;;5093388;28;20099;-64
2022/08/05 12:31:03;;;;;;;2.65;1.85;;;;;;;;;;5093381;28;20027;-64
2022/08/05 12:33:30;;;;;;;3.03;1.90;;;;;;;;;;5093377;28;20026;-63
2022/08/05 12:35:57;;;;;;;2.45;1.75;;;;;;;;;;5092895;28;20031;-64
2022/08/05 12:38:23;;;;;;;2.50;2.00;;;;;;;;;;5093774;28;20025;-64
2022/08/05 12:40:49;;;;;;;4.32;2.60;;;;;;;;;;5092003;28;20055;-64
2022/08/05 12:43:16;;;;;;;3.25;2.28;;;;;;;;;;5092869;28;20039;-64
2022/08/05 12:45:55;;;;;;;3.70;2.00;;;;;;;;;;5093153;28;20042;-64
2022/08/05 12:48:21;;;;;;;3.50;2.22;;;;;;;;;;5093209;28;20112;-63
2022/08/05 12:51:06;;;;;;;2.67;1.92;;;;;;;;;;5093122;28;20020;-63
2022/08/05 12:53:32;;;;;;;6.18;1.92;;;;;;;;;;5093154;28;20055;-63
2022/08/05 12:55:58;;;;;;;5.57;2.20;;;;;;;;;;5093343;28;20028;-63
2022/08/05 12:58:24;;;;;;;3.15;2.22;;;;;;;;;;5092704;28;20038;-63
2022/08/05 13:00:50;;;;;;;5.85;2.33;;;;;;;;;;5093077;28;20091;-63
2022/08/05 13:03:17;;;;;;;2.75;1.77;;;;;;;;;;5094965;28;20028;-63
2022/08/05 13:05:46;;;;;;;4.05;2.33;;;;;;;;;;5096704;28;20077;-63
2022/08/05 13:08:16;;;;;;;3.13;1.98;;;;;;;;;;5096770;28;20026;-63
2022/08/05 13:10:42;;;;;;;2.22;1.80;;;;;;;;;;5096793;28;20384;-63
2022/08/05 13:13:09;;;;;;;4.60;3.13;;;;;;;;;;5097059;28;20024;-63
2022/08/05 13:15:35;;;;;;;4.78;2.05;;;;;;;;;;5096517;28;20070;-64
2022/08/05 13:18:01;;;;;;;4.45;2.35;;;;;;;;;;5096414;28;20031;-63
2022/08/05 13:20:34;;;;;;;3.03;2.20;;;;;;;;;;5096651;28;20477;-63
2022/08/05 13:23:00;;;;;;;2.42;1.70;;;;;;;;;;5096850;28;20016;-64
2022/08/05 13:25:27;;;;;;;4.50;2.30;;;;;;;;;;5096275;28;20099;-64
2022/08/05 13:27:57;;;;;;;3.50;1.90;;;;;;;;;;5095245;28;20494;-63
2022/08/05 13:30:24;;;;;;;2.70;1.85;;;;;;;;;;5096571;28;20035;-63
2022/08/05 13:32:51;;;;;;;3.75;2.13;;;;;;;;;;5094652;28;20028;-64
2022/08/05 13:35:19;;;;;;;2.35;1.90;;;;;;;;;;5096218;28;20383;-64
2022/08/05 13:37:45;;;;;;;2.63;1.70;;;;;;;;;;5094878;28;20036;-64
2022/08/05 13:40:11;;;;;;;2.35;1.75;;;;;;;;;;5094567;28;20097;-64
2022/08/05 13:42:41;;;;;;;2.78;1.88;;;;;;;;;;5096202;28;20028;-64
2022/08/05 13:45:07;;;;;;;4.70;1.90;;;;;;;;;;5096232;28;20024;-64
2022/08/05 13:47:34;;;;;;;3.33;1.92;;;;;;;;;;5095720;28;20112;-63
2022/08/05 13:50:00;;;;;;;3.78;1.88;;;;;;;;;;5095949;28;20027;-64
2022/08/05 13:52:28;;;;;;;2.97;1.85;;;;;;;;;;5096321;28;20027;-64
2022/08/05 13:54:54;;;;;;;3.53;2.10;;;;;;;;;;5095486;28;20028;-63
2022/08/05 13:57:21;;;;;;;5.72;2.63;;;;;;;;;;5095811;28;20036;-64
2022/08/05 13:59:47;;;;;;;3.38;2.25;;;;;;;;;;5095935;28;20016;-64
2022/08/05 14:02:14;;;;;;;2.72;1.80;;;;;;;;;;5095432;28;20042;-64
2022/08/05 14:07:27;;;;;;;1.92;1.33;;;;;;;;;;5095742;28;20035;-64
2022/08/05 14:09:54;;;;;;;3.13;1.98;;;;;;;;;;5094384;28;20590;-64
2022/08/05 14:12:20;;;;;;;2.20;1.50;;;;;;;;;;5095705;28;20028;-64
2022/08/05 14:14:46;;;;;;;3.00;2.08;;;;;;;;;;5094991;28;20031;-64
2022/08/05 14:17:13;;;;;;;2.00;1.50;;;;;;;;;;5095319;28;20076;-64
2022/08/05 14:19:40;;;;;;;3.60;1.70;;;;;;;;;;5094234;28;20024;-64
2022/08/05 14:22:06;;;;;;;3.15;2.20;;;;;;;;;;5095062;28;20077;-64
2022/08/05 14:24:33;;;;;;;3.97;1.70;;;;;;;;;;5094089;28;20094;-64
2022/08/05 14:26:59;;;;;;;4.95;1.92;;;;;;;;;;5093952;28;20020;-64
2022/08/05 14:29:25;;;;;;;3.67;1.90;;;;;;;;;;5094601;28;20053;-63
2022/08/05 14:31:51;;;;;;;1.88;1.60;;;;;;;;;;5095560;28;20070;-64
2022/08/05 14:34:17;;;;;;;2.38;1.80;;;;;;;;;;5095213;28;20047;-64
2022/08/05 14:36:43;;;;;;;4.05;1.98;;;;;;;;;;5093356;28;20082;-64
2022/08/05 14:39:10;;;;;;;2.83;1.90;;;;;;;;;;5095107;28;20085;-64
2022/08/05 14:41:36;;;;;;;2.67;1.85;;;;;;;;;;5095351;28;20024;-64
2022/08/05 14:44:02;;;;;;;2.00;1.50;;;;;;;;;;5094694;28;20024;-64
2022/08/05 14:46:29;;;;;;;4.28;1.98;;;;;;;;;;5093709;28;20602;-64
2022/08/05 14:48:55;;;;;;;3.13;2.17;;;;;;;;;;5094924;28;20392;-64
2022/08/05 14:51:21;;;;;;;2.63;2.00;;;;;;;;;;5094410;28;20077;-65
2022/08/05 14:53:50;;;;;;;2.60;2.00;;;;;;;;;;5094884;28;20020;-64
2022/08/05 14:56:16;;;;;;;2.42;1.83;;;;;;;;;;5094495;28;20024;-64
2022/08/05 14:58:43;;;;;;;3.13;2.15;;;;;;;;;;5093519;28;20366;-64
2022/08/05 15:01:09;;;;;;;2.88;1.83;;;;;;;;;;5093347;28;20020;-64
2022/08/05 15:03:35;;;;;;;2.83;1.70;;;;;;;;;;5094402;28;20035;-65
2022/08/05 15:06:02;;;;;;;2.83;1.90;;;;;;;;;;5094981;28;20020;-64
2022/08/05 15:08:29;;;;;;;3.42;1.80;;;;;;;;;;5094582;28;20549;-64
2022/08/05 15:10:55;;;;;;;1.98;1.50;;;;;;;;;;5094348;28;20468;-64
2022/08/05 15:13:21;;;;;;;2.17;1.75;;;;;;;;;;5094509;28;20419;-64
2022/08/05 15:15:47;;;;;;;2.67;1.85;;;;;;;;;;5094090;28;20047;-64
2022/08/05 15:18:13;;;;;;;3.15;2.17;;;;;;;;;;5094318;28;20020;-64
2022/08/05 15:20:40;;;;;;;2.85;2.00;;;;;;;;;;5094785;28;20361;-64
2022/08/05 15:23:07;;;;;;;3.65;1.77;;;;;;;;;;5094327;28;20031;-64
2022/08/05 15:25:33;;;;;;;3.00;2.13;;;;;;;;;;5093472;28;20069;-64
2022/08/05 15:28:00;;;;;;;3.00;1.90;;;;;;;;;;5094186;28;20024;-64
2022/08/05 15:30:27;;;;;;;3.90;2.40;;;;;;;;;;5094188;28;20058;-64
2022/08/05 15:32:56;;;;;;;3.08;2.00;;;;;;;;;;5093705;28;20076;-64
2022/08/05 15:35:22;;;;;;;3.17;2.10;;;;;;;;;;5093998;28;20027;-64
2022/08/05 15:37:48;;;;;;;3.60;2.33;;;;;;;;;;5092736;28;20028;-64
2022/08/05 15:40:15;;;;;;;4.85;3.13;;;;;;;;;;5093624;28;20433;-64
2022/08/05 15:42:41;;;;;;;3.22;2.10;;;;;;;;;;5092736;28;20024;-65
2022/08/05 15:45:10;;;;;;;3.00;2.10;;;;;;;;;;5092668;28;20043;-64
2022/08/05 15:47:37;;;;;;;3.42;2.10;;;;;;;;;;5093457;28;20101;-63
2022/08/05 15:50:03;;;;;;;2.25;1.60;;;;;;;;;;5092587;28;20063;-64
2022/08/05 15:52:31;;;;;;;3.17;2.40;;;;;;;;;;5092116;28;20480;-63
2022/08/05 15:54:57;;;;;;;3.38;2.35;;;;;;;;;;5092488;28;20024;-63
2022/08/05 15:57:23;;;;;;;3.60;2.10;;;;;;;;;;5093775;28;20103;-63
2022/08/05 15:59:50;;;;;;;3.15;2.28;;;;;;;;;;5093334;28;20024;-63
2022/08/05 16:02:16;;;;;;;3.88;2.47;;;;;;;;;;5093660;28;20484;-64
2022/08/05 16:04:42;;;;;;;3.55;2.33;;;;;;;;;;5093655;28;20027;-63
2022/08/05 16:07:09;;;;;;;3.58;2.25;;;;;;;;;;5093217;28;20026;-63
2022/08/05 16:09:35;;;;;;;4.15;2.72;;;;;;;;;;5093734;28;20020;-63
2022/08/05 16:12:02;;;;;;;4.35;3.03;;;;;;;;;;5093527;28;20115;-63
2022/08/05 16:14:28;;;;;;;3.03;2.35;;;;;;;;;;5093137;28;20027;-63
2022/08/05 16:16:54;;;;;;;3.97;2.25;;;;;;;;;;5093182;28;20121;-63
2022/08/05 16:19:20;;;;;;;3.88;2.28;;;;;;;;;;5092193;28;20460;-63
2022/08/05 16:21:46;;;;;;;5.03;2.40;;;;;;;;;;5093082;28;20528;-63